sensor_id;sensor_type;location;lat;lon;timestamp;temperature;humidity
22503;DHT22;11418;48.118;9.992;2023-04-01T00:01:34;7.00;99.90
22503;DHT22;11418;48.118;9.992;2023-04-01T00:05:35;7.00;99.90
22503;DHT22;11418;48.118;9.992;2023-04-01T00:09:35;6.90;99.90
22503;DHT22;11418;48.118;9.992;2023-04-01T00:13:36;6.90;99.90
22503;DHT22;11418;48.118;9.992;2023-04-01T00:17:36;6.90;99.90
22503;DHT22;11418;48.118;9.992;2023-04-01T00:21:37;6.90;99.90
22503;DHT22;11418;48.118;9.992;2023-04-01T00:25:38;6.80;99.90
22503;DHT22;11418;48.118;9.992;2023-04-01T00:29:41;6.80;99.90
22503;DHT22;11418;48.118;9.992;2023-04-01T00:33:41;6.80;99.90
22503;DHT22;11418;48.118;9.992;2023-04-01T00:37:42;6.80;99.90
22503;DHT22;11418;48.118;9.992;2023-04-01T00:41:42;6.70;99.90
22503;DHT22;11418;48.118;9.992;2023-04-01T00:45:43;6.70;99.90
22503;DHT22;11418;48.118;9.992;2023-04-01T00:49:45;6.60;99.90
22503;DHT22;11418;48.118;9.992;2023-04-01T00:53:47;6.50;99.90
22503;DHT22;11418;48.118;9.992;2023-04-01T00:57:48;6.60;99.90
22503;DHT22;11418;48.118;9.992;2023-04-01T01:01:50;6.50;99.90
22503;DHT22;11418;48.118;9.992;2023-04-01T01:06:08;6.40;99.90
22503;DHT22;11418;48.118;9.992;2023-04-01T01:14:34;6.60;99.90
22503;DHT22;11418;48.118;9.992;2023-04-01T01:23:35;6.50;99.90
22503;DHT22;11418;48.118;9.992;2023-04-01T01:27:30;6.50;99.90
22503;DHT22;11418;48.118;9.992;2023-04-01T01:35:43;6.40;99.90
22503;DHT22;11418;48.118;9.992;2023-04-01T01:39:49;6.30;99.90
22503;DHT22;11418;48.118;9.992;2023-04-01T01:43:50;6.10;99.90
22503;DHT22;11418;48.118;9.992;2023-04-01T01:47:52;6.10;99.90
22503;DHT22;11418;48.118;9.992;2023-04-01T01:51:53;6.10;99.90
22503;DHT22;11418;48.118;9.992;2023-04-01T01:55:54;6.10;99.90
22503;DHT22;11418;48.118;9.992;2023-04-01T01:59:55;6.20;99.90
22503;DHT22;11418;48.118;9.992;2023-04-01T02:03:57;6.40;99.90
22503;DHT22;11418;48.118;9.992;2023-04-01T02:08:03;6.40;99.90
22503;DHT22;11418;48.118;9.992;2023-04-01T02:12:06;6.40;99.90
22503;DHT22;11418;48.118;9.992;2023-04-01T02:16:17;6.40;99.90
22503;DHT22;11418;48.118;9.992;2023-04-01T02:20:21;6.20;99.90
22503;DHT22;11418;48.118;9.992;2023-04-01T02:24:22;6.00;99.90
22503;DHT22;11418;48.118;9.992;2023-04-01T02:28:24;6.00;99.90
22503;DHT22;11418;48.118;9.992;2023-04-01T02:32:25;5.90;99.90
22503;DHT22;11418;48.118;9.992;2023-04-01T02:36:27;5.80;99.90
22503;DHT22;11418;48.118;9.992;2023-04-01T02:40:27;5.80;99.90
22503;DHT22;11418;48.118;9.992;2023-04-01T02:44:28;5.70;99.90
22503;DHT22;11418;48.118;9.992;2023-04-01T02:48:28;5.70;99.90
22503;DHT22;11418;48.118;9.992;2023-04-01T02:52:29;5.60;99.90
22503;DHT22;11418;48.118;9.992;2023-04-01T02:56:30;5.60;99.90
22503;DHT22;11418;48.118;9.992;2023-04-01T03:00:30;5.70;99.90
22503;DHT22;11418;48.118;9.992;2023-04-01T03:04:30;5.90;99.90
22503;DHT22;11418;48.118;9.992;2023-04-01T03:08:31;6.00;99.90
22503;DHT22;11418;48.118;9.992;2023-04-01T03:12:31;6.00;99.90
22503;DHT22;11418;48.118;9.992;2023-04-01T03:16:32;6.00;99.90
22503;DHT22;11418;48.118;9.992;2023-04-01T03:20:32;6.00;99.90
22503;DHT22;11418;48.118;9.992;2023-04-01T03:24:33;6.00;99.90
22503;DHT22;11418;48.118;9.992;2023-04-01T03:28:33;6.10;99.90
22503;DHT22;11418;48.118;9.992;2023-04-01T03:32:34;6.10;99.90
22503;DHT22;11418;48.118;9.992;2023-04-01T03:36:35;6.20;99.90
22503;DHT22;11418;48.118;9.992;2023-04-01T03:40:35;6.10;99.90
22503;DHT22;11418;48.118;9.992;2023-04-01T03:44:38;6.10;99.90
22503;DHT22;11418;48.118;9.992;2023-04-01T03:48:38;6.20;99.90
22503;DHT22;11418;48.118;9.992;2023-04-01T03:52:39;6.10;99.90
22503;DHT22;11418;48.118;9.992;2023-04-01T03:56:40;6.30;99.90
22503;DHT22;11418;48.118;9.992;2023-04-01T04:00:40;6.30;99.90
22503;DHT22;11418;48.118;9.992;2023-04-01T04:04:41;6.20;99.90
22503;DHT22;11418;48.118;9.992;2023-04-01T04:08:41;6.20;99.90
22503;DHT22;11418;48.118;9.992;2023-04-01T04:12:42;6.00;99.90
22503;DHT22;11418;48.118;9.992;2023-04-01T04:16:42;5.90;99.90
22503;DHT22;11418;48.118;9.992;2023-04-01T04:20:43;5.90;99.90
22503;DHT22;11418;48.118;9.992;2023-04-01T04:24:45;5.90;99.90
22503;DHT22;11418;48.118;9.992;2023-04-01T04:28:46;5.90;99.90
22503;DHT22;11418;48.118;9.992;2023-04-01T04:32:46;5.90;99.90
22503;DHT22;11418;48.118;9.992;2023-04-01T04:36:47;6.00;99.90
22503;DHT22;11418;48.118;9.992;2023-04-01T04:40:47;6.00;99.90
22503;DHT22;11418;48.118;9.992;2023-04-01T04:44:48;6.00;99.90
22503;DHT22;11418;48.118;9.992;2023-04-01T04:48:48;6.00;99.90
22503;DHT22;11418;48.118;9.992;2023-04-01T04:52:49;6.20;99.90
22503;DHT22;11418;48.118;9.992;2023-04-01T04:56:51;6.10;99.90
22503;DHT22;11418;48.118;9.992;2023-04-01T05:00:51;6.30;99.90
22503;DHT22;11418;48.118;9.992;2023-04-01T05:04:52;6.40;99.90
22503;DHT22;11418;48.118;9.992;2023-04-01T05:08:52;6.50;99.90
22503;DHT22;11418;48.118;9.992;2023-04-01T05:12:53;6.50;99.90
22503;DHT22;11418;48.118;9.992;2023-04-01T05:16:53;6.50;99.90
22503;DHT22;11418;48.118;9.992;2023-04-01T05:20:54;6.60;99.90
22503;DHT22;11418;48.118;9.992;2023-04-01T05:24:54;6.60;99.90
22503;DHT22;11418;48.118;9.992;2023-04-01T05:28:55;6.60;99.90
22503;DHT22;11418;48.118;9.992;2023-04-01T05:32:55;6.70;99.90
22503;DHT22;11418;48.118;9.992;2023-04-01T05:36:56;6.70;99.90
22503;DHT22;11418;48.118;9.992;2023-04-01T05:41:01;6.60;99.90
22503;DHT22;11418;48.118;9.992;2023-04-01T05:45:02;6.50;99.90
22503;DHT22;11418;48.118;9.992;2023-04-01T05:49:03;6.40;99.90
22503;DHT22;11418;48.118;9.992;2023-04-01T05:53:03;6.50;99.90
22503;DHT22;11418;48.118;9.992;2023-04-01T05:57:04;6.70;99.90
22503;DHT22;11418;48.118;9.992;2023-04-01T06:01:05;6.90;99.90
22503;DHT22;11418;48.118;9.992;2023-04-01T06:05:20;7.00;99.90
22503;DHT22;11418;48.118;9.992;2023-04-01T06:09:26;7.10;99.90
22503;DHT22;11418;48.118;9.992;2023-04-01T06:26:09;7.50;99.90
22503;DHT22;11418;48.118;9.992;2023-04-01T06:38:44;7.60;99.90
22503;DHT22;11418;48.118;9.992;2023-04-01T06:47:33;7.60;99.90
22503;DHT22;11418;48.118;9.992;2023-04-01T06:51:52;7.80;99.90
22503;DHT22;11418;48.118;9.992;2023-04-01T06:56:00;7.90;99.90
22503;DHT22;11418;48.118;9.992;2023-04-01T07:00:03;8.00;99.90
22503;DHT22;11418;48.118;9.992;2023-04-01T07:08:23;8.40;99.90
22503;DHT22;11418;48.118;9.992;2023-04-01T07:16:32;8.80;99.90
22503;DHT22;11418;48.118;9.992;2023-04-01T07:20:37;8.60;99.90
22503;DHT22;11418;48.118;9.992;2023-04-01T07:24:39;8.40;99.90
22503;DHT22;11418;48.118;9.992;2023-04-01T07:28:40;8.40;99.90
22503;DHT22;11418;48.118;9.992;2023-04-01T07:32:44;8.40;99.90
22503;DHT22;11418;48.118;9.992;2023-04-01T07:36:47;8.60;99.90
22503;DHT22;11418;48.118;9.992;2023-04-01T07:53:20;9.30;99.90
22503;DHT22;11418;48.118;9.992;2023-04-01T08:09:53;10.30;99.90
22503;DHT22;11418;48.118;9.992;2023-04-01T08:14:02;10.70;99.90
22503;DHT22;11418;48.118;9.992;2023-04-01T08:22:16;10.20;99.90
22503;DHT22;11418;48.118;9.992;2023-04-01T08:26:30;10.40;99.90
22503;DHT22;11418;48.118;9.992;2023-04-01T08:34:39;10.10;99.90
22503;DHT22;11418;48.118;9.992;2023-04-01T08:38:44;9.90;99.90
22503;DHT22;11418;48.118;9.992;2023-04-01T08:51:42;10.10;99.90
22503;DHT22;11418;48.118;9.992;2023-04-01T09:04:13;10.30;99.90
22503;DHT22;11418;48.118;9.992;2023-04-01T09:16:36;9.80;99.90
22503;DHT22;11418;48.118;9.992;2023-04-01T09:20:46;9.60;99.90
22503;DHT22;11418;48.118;9.992;2023-04-01T09:33:38;9.30;99.90
22503;DHT22;11418;48.118;9.992;2023-04-01T09:45:58;8.80;99.90
22503;DHT22;11418;48.118;9.992;2023-04-01T10:06:47;8.90;99.90
22503;DHT22;11418;48.118;9.992;2023-04-01T10:10:58;8.90;99.90
22503;DHT22;11418;48.118;9.992;2023-04-01T10:23:47;9.00;99.90
22503;DHT22;11418;48.118;9.992;2023-04-01T10:57:40;9.30;99.90
22503;DHT22;11418;48.118;9.992;2023-04-01T11:14:26;10.10;99.90
22503;DHT22;11418;48.118;9.992;2023-04-01T11:39:11;9.60;99.90
22503;DHT22;11418;48.118;9.992;2023-04-01T11:43:24;9.20;99.90
22503;DHT22;11418;48.118;9.992;2023-04-01T11:51:44;8.50;99.90
22503;DHT22;11418;48.118;9.992;2023-04-01T11:56:00;8.50;99.90
22503;DHT22;11418;48.118;9.992;2023-04-01T12:00:10;8.20;99.90
22503;DHT22;11418;48.118;9.992;2023-04-01T12:04:19;8.20;99.90
22503;DHT22;11418;48.118;9.992;2023-04-01T12:12:32;8.40;99.90
22503;DHT22;11418;48.118;9.992;2023-04-01T12:16:38;8.70;99.90
22503;DHT22;11418;48.118;9.992;2023-04-01T12:20:45;8.90;99.90
22503;DHT22;11418;48.118;9.992;2023-04-01T12:24:49;9.00;99.90
22503;DHT22;11418;48.118;9.992;2023-04-01T12:37:38;9.00;99.90
22503;DHT22;11418;48.118;9.992;2023-04-01T12:49:55;9.10;99.90
22503;DHT22;11418;48.118;9.992;2023-04-01T12:54:14;9.10;99.90
22503;DHT22;11418;48.118;9.992;2023-04-01T13:10:41;9.50;99.90
22503;DHT22;11418;48.118;9.992;2023-04-01T13:18:55;9.30;99.90
22503;DHT22;11418;48.118;9.992;2023-04-01T13:23:03;9.30;99.90
22503;DHT22;11418;48.118;9.992;2023-04-01T13:31:24;9.40;99.90
22503;DHT22;11418;48.118;9.992;2023-04-01T13:39:28;9.20;99.90
22503;DHT22;11418;48.118;9.992;2023-04-01T13:43:35;9.10;99.90
22503;DHT22;11418;48.118;9.992;2023-04-01T14:00:10;10.70;99.90
22503;DHT22;11418;48.118;9.992;2023-04-01T14:04:20;10.80;99.90
22503;DHT22;11418;48.118;9.992;2023-04-01T14:08:42;11.10;99.90
22503;DHT22;11418;48.118;9.992;2023-04-01T14:12:58;11.10;99.90
22503;DHT22;11418;48.118;9.992;2023-04-01T14:17:14;11.00;99.90
22503;DHT22;11418;48.118;9.992;2023-04-01T14:21:28;10.80;99.90
22503;DHT22;11418;48.118;9.992;2023-04-01T14:46:31;10.80;99.90
22503;DHT22;11418;48.118;9.992;2023-04-01T14:50:41;10.70;99.90
22503;DHT22;11418;48.118;9.992;2023-04-01T14:54:43;10.60;99.90
22503;DHT22;11418;48.118;9.992;2023-04-01T14:58:45;10.40;99.90
22503;DHT22;11418;48.118;9.992;2023-04-01T15:11:14;10.40;99.90
22503;DHT22;11418;48.118;9.992;2023-04-01T15:15:35;10.50;99.90
22503;DHT22;11418;48.118;9.992;2023-04-01T15:24:05;10.10;99.90
22503;DHT22;11418;48.118;9.992;2023-04-01T15:28:10;10.20;99.90
22503;DHT22;11418;48.118;9.992;2023-04-01T15:32:16;10.20;99.90
22503;DHT22;11418;48.118;9.992;2023-04-01T15:40:47;10.00;99.90
22503;DHT22;11418;48.118;9.992;2023-04-01T15:45:00;10.10;99.90
22503;DHT22;11418;48.118;9.992;2023-04-01T15:57:33;9.90;99.90
22503;DHT22;11418;48.118;9.992;2023-04-01T16:18:43;9.70;99.90
22503;DHT22;11418;48.118;9.992;2023-04-01T16:27:05;9.30;99.90
22503;DHT22;11418;48.118;9.992;2023-04-01T16:31:16;9.20;99.90
22503;DHT22;11418;48.118;9.992;2023-04-01T16:39:44;9.30;99.90
22503;DHT22;11418;48.118;9.992;2023-04-01T16:43:48;9.30;99.90
22503;DHT22;11418;48.118;9.992;2023-04-01T16:47:56;9.10;99.90
22503;DHT22;11418;48.118;9.992;2023-04-01T16:52:12;9.10;99.90
22503;DHT22;11418;48.118;9.992;2023-04-01T16:56:17;9.00;99.90
22503;DHT22;11418;48.118;9.992;2023-04-01T17:00:37;9.00;99.90
22503;DHT22;11418;48.118;9.992;2023-04-01T17:04:46;8.90;99.90
22503;DHT22;11418;48.118;9.992;2023-04-01T17:08:57;9.00;99.90
22503;DHT22;11418;48.118;9.992;2023-04-01T17:25:48;8.80;99.90
22503;DHT22;11418;48.118;9.992;2023-04-01T17:34:15;8.40;99.90
22503;DHT22;11418;48.118;9.992;2023-04-01T17:42:46;8.50;99.90
22503;DHT22;11418;48.118;9.992;2023-04-01T17:47:00;8.60;99.90
22503;DHT22;11418;48.118;9.992;2023-04-01T17:59:24;8.40;99.90
22503;DHT22;11418;48.118;9.992;2023-04-01T18:07:56;8.30;99.90
22503;DHT22;11418;48.118;9.992;2023-04-01T18:28:38;8.00;99.90
22503;DHT22;11418;48.118;9.992;2023-04-01T18:36:53;7.90;99.90
22503;DHT22;11418;48.118;9.992;2023-04-01T18:41:08;7.90;99.90
22503;DHT22;11418;48.118;9.992;2023-04-01T18:49:41;7.50;99.90
22503;DHT22;11418;48.118;9.992;2023-04-01T18:53:45;7.50;99.90
22503;DHT22;11418;48.118;9.992;2023-04-01T18:57:49;7.50;99.90
22503;DHT22;11418;48.118;9.992;2023-04-01T19:05:51;7.40;99.90
22503;DHT22;11418;48.118;9.992;2023-04-01T19:09:53;7.20;99.90
22503;DHT22;11418;48.118;9.992;2023-04-01T19:14:00;7.20;99.90
22503;DHT22;11418;48.118;9.992;2023-04-01T19:30:42;6.60;99.90
22503;DHT22;11418;48.118;9.992;2023-04-01T19:34:57;6.60;99.90
22503;DHT22;11418;48.118;9.992;2023-04-01T19:52:04;6.90;99.90
22503;DHT22;11418;48.118;9.992;2023-04-01T20:04:51;6.70;99.90
22503;DHT22;11418;48.118;9.992;2023-04-01T20:21:41;6.60;99.90
22503;DHT22;11418;48.118;9.992;2023-04-01T20:34:13;6.60;99.90
22503;DHT22;11418;48.118;9.992;2023-04-01T20:50:45;6.50;99.90
22503;DHT22;11418;48.118;9.992;2023-04-01T21:07:42;6.10;99.90
22503;DHT22;11418;48.118;9.992;2023-04-01T21:15:59;6.00;99.90
22503;DHT22;11418;48.118;9.992;2023-04-01T21:20:10;6.00;99.90
22503;DHT22;11418;48.118;9.992;2023-04-01T21:28:35;5.70;99.90
22503;DHT22;11418;48.118;9.992;2023-04-01T21:36:46;5.90;99.90
22503;DHT22;11418;48.118;9.992;2023-04-01T21:40:58;5.80;99.90
22503;DHT22;11418;48.118;9.992;2023-04-01T21:49:36;5.80;99.90
22503;DHT22;11418;48.118;9.992;2023-04-01T22:06:19;6.00;99.90
22503;DHT22;11418;48.118;9.992;2023-04-01T22:15:22;6.00;99.90
22503;DHT22;11418;48.118;9.992;2023-04-01T22:19:39;5.90;99.90
22503;DHT22;11418;48.118;9.992;2023-04-01T22:28:19;5.70;99.90
22503;DHT22;11418;48.118;9.992;2023-04-01T22:32:27;5.70;99.90
22503;DHT22;11418;48.118;9.992;2023-04-01T22:40:43;5.90;99.90
22503;DHT22;11418;48.118;9.992;2023-04-01T22:45:23;5.90;99.90
22503;DHT22;11418;48.118;9.992;2023-04-01T22:49:17;5.80;99.90
22503;DHT22;11418;48.118;9.992;2023-04-01T22:53:26;5.70;99.90
22503;DHT22;11418;48.118;9.992;2023-04-01T22:57:35;5.60;99.90
22503;DHT22;11418;48.118;9.992;2023-04-01T23:01:39;5.60;99.90
22503;DHT22;11418;48.118;9.992;2023-04-01T23:05:52;5.40;99.90
22503;DHT22;11418;48.118;9.992;2023-04-01T23:09:52;5.40;99.90
22503;DHT22;11418;48.118;9.992;2023-04-01T23:34:40;5.00;99.90
22503;DHT22;11418;48.118;9.992;2023-04-01T23:38:47;4.70;99.90
22503;DHT22;11418;48.118;9.992;2023-04-01T23:42:48;4.90;99.90
22503;DHT22;11418;48.118;9.992;2023-04-01T23:46:49;5.10;99.90
22503;DHT22;11418;48.118;9.992;2023-04-01T23:50:50;5.40;99.90
22503;DHT22;11418;48.118;9.992;2023-04-01T23:54:52;5.60;99.90
22503;DHT22;11418;48.118;9.992;2023-04-01T23:58:52;5.80;99.90
